Latest Weather Observations for Moorabbin Airport

IDV60801

Issued at 6:05 pm EST Sunday 20 April 2014 (issued every 30 minutes, with the page automatically refreshed every 10 minutes)

About weather observations | Map of weather stations | Latest weather observations for VIC | Other Formats
Station Details ID: 086077 Name: MOORABBIN AIRPORT Lat: -37.98 Lon: 145.10 Height: 12.1 m
Data from the previous 72 hours. | See also: Recent months at Moorabbin Airport
Date/Time
EST
Temp
°C
App
Temp
°C
Dew
Point
Rel
Hum
%
Delta-T
°C
Wind Press
QNH
hPa
Press
MSL
hPa
Rain
since 9 am
mm
Dir
 
Spd
km/h
Gust
km/h
Spd
kts
Gust
kts
20/06:00pm 15.1 11.0 6.4 56 4.2 N 17 22 9 12 1016.9 1016.8 0.0
20/05:30pm 16.3 13.3 5.9 50 5.0 N 11 13 6 7 1016.5 - 0.0
20/05:00pm 17.3 14.1 5.3 45 5.8 NNW 11 17 6 9 1016.4 - 0.0
20/04:30pm 17.6 14.1 5.5 45 5.9 NNW 13 19 7 10 1016.3 - 0.0
20/04:00pm 18.1 15.0 5.7 44 6.0 NW 11 20 6 11 1016.2 - 0.0
20/03:30pm 18.3 15.7 6.2 45 6.0 NW 9 13 5 7 1016.3 - 0.0
20/03:00pm 17.9 14.8 5.5 44 6.0 NW 11 17 6 9 1016.3 1016.2 0.0
20/02:30pm 17.9 14.8 5.5 44 6.0 WNW 11 17 6 9 1016.1 - 0.0
20/02:00pm 17.9 14.0 5.2 43 6.1 WNW 15 24 8 13 1016.1 - 0.0
20/01:30pm 18.7 14.5 5.5 42 6.4 W 17 24 9 13 1016.3 - 0.0
20/01:00pm 18.5 14.8 6.4 45 6.0 W 15 24 8 13 1016.5 - 0.0
20/12:30pm 17.3 13.0 5.3 45 5.8 WNW 17 24 9 13 1016.8 - 0.0
20/12:00pm 16.9 12.1 4.6 44 5.8 WNW 19 26 10 14 1017.2 1017.1 0.0
20/11:30am 17.0 12.1 5.0 45 5.7 WNW 20 32 11 17 1017.5 - 0.0
20/11:00am 16.5 11.7 5.8 49 5.2 WNW 20 30 11 16 1017.7 - 0.0
20/10:30am 16.3 12.2 6.2 51 4.9 WNW 17 24 9 13 1017.8 - 0.0
20/10:00am 15.5 12.3 6.8 56 4.3 NW 13 20 7 11 1017.9 - 0.0
20/09:30am 14.4 10.9 7.2 62 3.5 N 15 19 8 10 1018.0 - 0.0
20/09:00am 13.1 9.7 7.5 69 2.7 N 15 19 8 10 1018.0 1017.9 0.2
20/08:30am 12.8 9.5 8.1 73 2.3 N 15 17 8 9 1018.0 - 0.2
20/08:00am 12.3 9.0 8.0 75 2.1 N 15 17 8 9 1017.8 - 0.2
20/07:30am 12.2 9.7 8.3 77 1.9 N 11 15 6 8 1017.5 - 0.2
20/07:00am 12.1 9.7 8.6 79 1.7 N 11 15 6 8 1017.4 - 0.2
20/06:30am 12.1 9.7 8.8 80 1.6 N 11 15 6 8 1017.2 - 0.2
20/06:00am 12.2 9.9 8.9 80 1.6 N 11 15 6 8 1017.0 1016.9 0.2
20/05:30am 12.4 10.1 8.9 79 1.8 NNW 11 13 6 7 1016.9 - 0.2
20/05:00am 12.4 10.1 8.9 79 1.8 N 11 15 6 8 1016.7 - 0.2
20/04:30am 12.5 10.1 8.8 78 1.8 NNW 11 15 6 8 1016.6 - 0.2
20/04:00am 12.6 10.3 8.9 78 1.9 N 11 15 6 8 1016.6 - 0.2
20/03:30am 12.9 10.1 8.4 74 2.2 NNW 13 19 7 10 1016.6 - 0.2
20/03:00am 12.7 10.4 9.0 78 1.9 N 11 13 6 7 1016.7 1016.6 0.2
20/02:30am 12.7 10.4 9.0 78 1.9 N 11 13 6 7 1016.9 - 0.2
20/02:00am 12.6 10.3 8.9 78 1.9 N 11 15 6 8 1017.0 - 0.2
20/01:30am 12.6 10.2 8.7 77 1.9 N 11 15 6 8 1017.2 - 0.2
20/01:00am 12.6 9.8 8.5 76 2.0 N 13 15 7 8 1017.3 - 0.2
20/12:30am 12.4 10.0 8.5 77 1.9 N 11 13 6 7 1017.4 - 0.2
20/12:00am 12.5 10.0 8.4 76 2.0 N 11 15 6 8 1017.6 1017.5 0.2
 
Date/Time
EST
Temp
°C
App
Temp
°C
Dew
Point
Rel
Hum
%
Delta-T
°C
Wind Press
QNH
hPa
Press
MSL
hPa
Rain
since 9 am
mm
Dir
 
Spd
km/h
Gust
km/h
Spd
kts
Gust
kts
19/11:30pm 12.5 10.0 8.4 76 2.0 N 11 15 6 8 1017.8 - 0.2
19/11:00pm 12.7 10.7 8.8 77 2.0 N 9 11 5 6 1018.1 - 0.2
19/10:30pm 12.8 11.2 8.9 77 2.0 NNE 7 9 4 5 1018.3 - 0.2
19/10:00pm 12.9 12.7 9.2 78 1.9 CALM 0 6 0 3 1018.4 - 0.2
19/09:30pm 13.2 10.9 8.9 75 2.2 NNE 11 15 6 8 1018.4 - 0.2
19/09:00pm 13.1 10.7 8.6 74 2.2 NNE 11 13 6 7 1018.5 1018.4 0.2
19/08:30pm 13.3 11.2 8.4 72 2.4 NE 9 9 5 5 1018.7 - 0.2
19/08:00pm 13.4 13.1 8.5 72 2.4 CALM 0 0 0 0 1018.8 - 0.2
19/07:30pm 13.5 11.7 8.1 70 2.7 ESE 7 9 4 5 1018.8 - 0.2
19/07:00pm 13.8 12.2 8.6 71 2.6 S 7 11 4 6 1018.8 - 0.2
19/06:30pm 13.8 11.7 8.2 69 2.8 S 9 13 5 7 1018.7 - 0.2
19/06:00pm 14.1 11.6 8.1 67 3.0 SSW 11 15 6 8 1018.6 1018.5 0.2
19/05:30pm 14.3 11.1 8.3 67 3.0 SSW 15 20 8 11 1018.5 - 0.2
19/05:00pm 15.1 12.4 8.8 66 3.2 SSW 13 17 7 9 1018.6 - 0.2
19/04:30pm 14.6 11.5 9.0 69 2.9 SSW 15 20 8 11 1018.7 - 0.2
19/04:00pm 14.9 11.8 8.8 67 3.1 S 15 20 8 11 1018.8 - 0.2
19/03:30pm 15.5 11.7 9.0 65 3.3 S 19 28 10 15 1018.8 - 0.2
19/03:00pm 15.0 10.8 9.6 70 2.8 S 22 28 12 15 1018.8 1018.7 0.2
19/02:30pm 14.9 11.6 7.9 63 3.5 S 15 20 8 11 1018.9 - 0.2
19/02:00pm 14.9 11.4 8.6 66 3.2 S 17 20 9 11 1019.1 - 0.2
19/01:30pm 14.8 12.0 8.7 67 3.1 SSW 13 20 7 11 1019.3 - 0.2
19/01:00pm 13.5 12.3 9.4 76 2.1 SE 6 9 3 5 1019.7 - 0.2
19/12:30pm 13.6 9.7 9.5 76 2.1 SSW 20 28 11 15 1020.2 - 0.2
19/12:00pm 13.4 10.1 9.6 78 1.9 SSW 17 28 9 15 1020.5 1020.4 0.2
19/11:30am 13.1 10.8 10.3 83 1.4 SW 13 20 7 11 1020.7 - 0.2
19/11:00am 13.4 11.0 10.0 80 1.8 SW 13 17 7 9 1020.7 - 0.2
19/10:30am 12.7 10.0 10.4 86 1.2 SSW 15 24 8 13 1020.8 - 0.2
19/10:13am 12.2 9.7 10.9 92 0.7 S 15 20 8 11 1020.7 - 0.2
19/10:00am 12.1 9.8 10.5 90 0.8 S 13 20 7 11 1020.7 - 0.2
19/09:58am 12.2 10.3 10.6 90 0.8 S 11 20 6 11 1020.8 - 0.2
19/09:30am 12.3 11.8 10.7 90 0.8 NW 4 7 2 4 1020.6 - 0.2
19/09:21am 11.8 10.6 10.4 91 0.7 WNW 7 9 4 5 1020.5 - 0.2
19/09:00am 11.7 10.6 10.6 93 0.6 WNW 7 9 4 5 1020.7 1020.6 2.6
19/08:30am 11.8 9.1 10.4 91 0.7 W 15 24 8 13 1020.5 - 2.0
19/08:08am 11.9 8.2 10.0 88 1.0 SW 20 28 11 15 1020.3 - 1.8
19/08:00am 12.1 8.3 9.7 85 1.2 WSW 20 32 11 17 1020.2 - 1.6
19/07:30am 12.3 9.3 9.1 81 1.6 SW 15 26 8 14 1019.7 - 1.6
19/07:00am 11.9 10.2 9.8 87 1.1 SW 9 15 5 8 1019.5 - 1.4
19/06:30am 13.0 10.3 9.1 77 2.0 SW 13 19 7 10 1019.3 - 0.8
19/06:00am 12.6 10.7 9.2 80 1.7 SW 9 13 5 7 1019.2 1019.1 0.8
19/05:30am 13.0 11.0 8.7 75 2.2 SSW 9 19 5 10 1019.0 - 0.8
19/05:00am 12.0 9.0 7.7 75 2.1 SE 13 15 7 8 1018.8 - 0.8
19/04:30am 13.4 10.1 8.0 70 2.7 SW 15 26 8 14 1018.8 - 0.8
19/04:00am 12.9 8.6 8.0 72 2.4 SSW 20 28 11 15 1018.7 - 0.8
19/03:30am 12.5 7.0 9.0 79 1.8 SSW 28 39 15 21 1018.9 - 0.8
19/03:00am 13.9 10.2 8.1 68 2.9 WSW 17 26 9 14 1018.7 1018.6 0.4
19/02:30am 14.0 10.4 8.2 68 2.9 WSW 17 24 9 13 1019.0 - 0.4
19/02:00am 13.6 9.6 8.9 73 2.4 W 20 33 11 18 1019.2 - 0.4
19/01:30am 13.7 10.6 9.0 73 2.4 W 15 24 8 13 1019.4 - 0.4
19/01:00am 14.3 9.7 5.4 55 4.2 SW 19 30 10 16 1019.5 - 0.4
19/12:30am 14.5 10.4 6.3 58 3.9 SW 17 26 9 14 1019.5 - 0.4
19/12:00am 14.3 10.1 7.6 64 3.3 SW 19 28 10 15 1019.5 1019.4 0.4
 
Date/Time
EST
Temp
°C
App
Temp
°C
Dew
Point
Rel
Hum
%
Delta-T
°C
Wind Press
QNH
hPa
Press
MSL
hPa
Rain
since 9 am
mm
Dir
 
Spd
km/h
Gust
km/h
Spd
kts
Gust
kts
18/11:30pm 13.9 9.7 8.3 69 2.8 WSW 20 32 11 17 1019.5 - 0.4
18/11:00pm 14.2 10.2 8.4 68 2.9 WSW 19 28 10 15 1019.6 - 0.4
18/10:30pm 14.2 10.1 8.8 70 2.7 WSW 20 32 11 17 1019.8 - 0.4
18/10:00pm 14.3 10.2 8.7 69 2.8 SW 20 33 11 18 1019.8 - 0.4
18/09:30pm 14.0 10.0 8.2 68 2.9 WSW 19 30 10 16 1019.8 - 0.4
18/09:00pm 13.5 9.5 9.0 74 2.3 WSW 20 30 11 16 1019.6 1019.5 0.4
18/08:30pm 14.4 10.0 7.5 63 3.4 WSW 20 30 11 16 1019.4 - 0.4
18/08:00pm 14.7 10.0 7.7 63 3.5 WSW 22 35 12 19 1019.3 - 0.4
18/07:30pm 14.4 8.3 8.4 67 3.0 SW 30 41 16 22 1019.2 - 0.4
18/07:00pm 14.9 9.0 7.5 61 3.7 SW 28 37 15 20 1018.9 - 0.4
18/06:30pm 15.1 10.2 6.9 58 4.0 SW 22 37 12 20 1018.7 - 0.4
18/06:00pm 14.9 9.4 7.7 62 3.6 SSW 26 43 14 23 1018.5 1018.4 0.4
18/05:34pm 15.3 9.0 7.3 59 4.0 SW 30 54 16 29 1018.5 - 0.4
18/05:30pm 15.4 8.9 6.4 55 4.4 SW 30 39 16 21 1018.3 - 0.4
18/05:00pm 16.0 9.5 6.4 53 4.7 SSW 30 43 16 23 1018.0 - 0.4
18/04:30pm 16.2 9.9 7.4 56 4.4 SW 30 41 16 22 1017.7 - 0.4
18/04:00pm 16.5 10.1 6.9 53 4.7 SW 30 44 16 24 1017.5 - 0.4
18/03:30pm 16.8 11.5 8.5 58 4.2 SSW 26 35 14 19 1017.4 - 0.4
18/03:12pm 16.7 11.1 8.9 60 4.0 SSW 28 46 15 25 1017.3 - 0.4
18/03:00pm 16.6 10.5 9.8 64 3.6 SW 32 48 17 26 1017.3 1017.2 0.4
18/02:40pm 17.2 11.5 8.4 56 4.5 SW 28 46 15 25 1017.1 - 0.4
18/02:30pm 17.5 11.0 8.1 54 4.8 SW 32 43 17 23 1016.9 - 0.4
18/02:02pm 16.8 10.0 6.9 52 4.9 SW 32 50 17 27 1016.7 - 0.4
18/02:00pm 16.6 9.5 6.4 51 5.0 SW 33 50 18 27 1016.7 - 0.4
18/01:57pm 16.7 9.7 5.9 49 5.2 SW 32 50 17 27 1016.7 - 0.4
18/01:30pm 16.7 10.3 8.4 58 4.2 SW 32 46 17 25 1016.4 - 0.4
18/01:00pm 15.2 10.2 11.0 76 2.2 SW 28 39 15 21 1016.4 - 0.4
18/12:30pm 15.1 9.5 11.5 79 1.9 SW 32 44 17 24 1016.6 - 0.4
18/12:17pm 14.8 9.8 12.3 85 1.4 SW 30 50 16 27 1016.5 - 0.4
18/12:00pm 14.9 9.7 11.5 80 1.8 SW 30 41 16 22 1016.3 1016.2 0.2
18/11:34am 15.3 9.8 11.7 79 1.9 SW 32 46 17 25 1016.1 - 0.2
18/11:30am 15.3 10.4 12.4 83 1.6 SW 30 46 16 25 1016.0 - 0.2
18/11:29am 15.2 10.7 12.5 84 1.5 SW 28 46 15 25 1016.1 - 0.2
18/11:16am 15.1 11.2 13.3 89 1.0 WSW 26 41 14 22 1016.0 - 0.2
18/11:05am 14.7 10.2 12.6 87 1.1 WSW 28 41 15 22 1015.8 - 0.2
18/11:00am 15.6 11.8 13.6 88 1.1 WSW 26 41 14 22 1015.8 - 0.0
18/10:59am 15.9 12.1 13.7 87 1.2 W 26 41 14 22 1015.7 - 0.0
18/10:49am 16.1 10.8 13.0 82 1.7 W 33 43 18 23 1015.4 - 0.0
18/10:30am 18.4 17.0 13.5 73 2.8 WNW 13 19 7 10 1015.1 - 0.0
18/10:00am 16.3 15.2 13.2 82 1.7 WNW 11 19 6 10 1015.2 - 0.0
18/09:30am 18.0 13.5 10.1 60 4.2 W 24 41 13 22 1015.3 - 0.0
18/09:00am 18.2 14.6 9.8 58 4.4 NNW 19 24 10 13 1014.6 1014.5 0.0
18/08:30am 16.9 13.7 10.1 64 3.6 N 17 20 9 11 1014.6 - 0.0
18/08:00am 15.9 12.6 9.6 66 3.3 N 17 26 9 14 1014.7 - 0.0
18/07:30am 15.2 12.2 9.3 68 3.0 N 15 22 8 12 1014.7 - 0.0
18/07:00am 14.9 12.3 9.3 69 2.9 N 13 17 7 9 1014.7 - 0.0
18/06:30am 14.1 11.5 9.3 73 2.5 N 13 17 7 9 1014.9 - 0.0
18/06:00am 13.6 10.9 9.1 74 2.3 N 13 17 7 9 1014.9 1014.8 0.0
18/05:30am 13.5 10.9 9.2 75 2.2 NNW 13 17 7 9 1015.3 - 0.0
18/05:00am 13.4 11.4 10.2 81 1.7 NNW 11 13 6 7 1015.3 - 0.0
18/04:30am 13.0 12.0 12.2 95 0.4 N 9 11 5 6 1015.5 - 0.0
18/04:00am 12.9 12.1 11.6 92 0.7 N 7 9 4 5 1015.6 - 0.0
18/03:30am 14.1 13.7 12.5 90 0.9 NW 6 7 3 4 1015.7 - 0.0
18/03:00am 13.5 13.5 9.9 79 1.9 CALM 0 6 0 3 1015.8 1015.7 0.0
18/02:30am 14.3 12.5 9.3 72 2.6 NW 9 13 5 7 1015.8 - 0.0
18/02:00am 14.7 12.4 9.1 69 2.9 WNW 11 17 6 9 1015.9 - 0.0
18/01:30am 15.3 12.7 9.4 68 3.0 NNW 13 15 7 8 1016.1 - 0.0
18/01:00am 15.8 13.6 9.5 66 3.3 NNW 11 13 6 7 1016.6 - 0.0
18/12:30am 16.8 14.2 9.5 62 3.8 NNW 13 17 7 9 1016.7 - 0.0
18/12:00am 16.7 13.8 9.6 63 3.7 NNW 15 17 8 9 1017.1 1017.0 0.0
 
Date/Time
EST
Temp
°C
App
Temp
°C
Dew
Point
Rel
Hum
%
Delta-T
°C
Wind Press
QNH
hPa
Press
MSL
hPa
Rain
since 9 am
mm
Dir
 
Spd
km/h
Gust
km/h
Spd
kts
Gust
kts
17/11:30pm 16.6 14.1 9.8 64 3.6 NNW 13 19 7 10 1017.3 - 0.0
17/11:00pm 16.5 14.0 9.7 64 3.6 NNW 13 15 7 8 1017.5 - 0.0
17/10:30pm 17.4 14.9 9.8 61 4.0 N 13 17 7 9 1017.6 - 0.0
17/10:00pm 17.1 14.6 9.8 62 3.8 N 13 15 7 8 1017.7 - 0.0
17/09:30pm 15.3 13.5 9.4 68 3.0 N 9 11 5 6 1017.7 - 0.0
17/09:00pm 14.6 13.2 9.4 71 2.7 N 7 7 4 4 1017.6 1017.5 0.0
17/08:30pm 15.3 13.9 8.8 65 3.3 N 6 7 3 4 1017.7 - 0.0
17/08:00pm 15.7 14.4 9.1 65 3.4 ENE 6 7 3 4 1017.8 - 0.0
17/07:30pm 15.7 15.1 9.1 65 3.4 N 2 7 1 4 1018.0 - 0.0
17/07:00pm 16.5 16.1 8.2 58 4.2 CALM 0 0 0 0 1017.9 - 0.0
17/06:30pm 17.1 16.6 8.0 55 4.6 CALM 0 0 0 0 1017.8 - 0.0

Other Formats:

Comma delimited format used in spreadsheet applications
http://www.bom.gov.au/fwo/IDV60801/IDV60801.94870.axf

JavaScript Object Notation format (JSON) in row-major order
http://www.bom.gov.au/fwo/IDV60801/IDV60801.94870.json